createdAt,value
2019-02-19T00:00:17.662Z,17.47
2019-02-19T00:02:51.187Z,17.50
2019-02-19T00:05:34.155Z,18.10
2019-02-19T00:08:10.287Z,17.60
2019-02-19T00:11:02.569Z,17.13
2019-02-19T00:13:38.268Z,17.10
2019-02-19T00:16:07.372Z,17.30
2019-02-19T00:18:36.334Z,18.23
2019-02-19T00:21:12.832Z,18.83
2019-02-19T00:23:47.859Z,18.50
2019-02-19T00:26:22.286Z,18.53
2019-02-19T00:29:06.386Z,18.80
2019-02-19T00:31:42.646Z,18.10
2019-02-19T00:34:16.867Z,18.50
2019-02-19T00:36:52.129Z,18.03
2019-02-19T00:39:23.351Z,17.30
2019-02-19T00:41:52.527Z,17.27
2019-02-19T00:44:21.489Z,17.23
2019-02-19T00:46:57.418Z,17.10
2019-02-19T00:49:27.865Z,17.80
2019-02-19T00:51:58.991Z,17.50
2019-02-19T00:54:28.919Z,18.50
2019-02-19T00:56:59.014Z,17.87
2019-02-19T00:59:28.184Z,18.30
2019-02-19T01:01:59.320Z,18.60
2019-02-19T01:04:28.323Z,19.20
2019-02-19T01:07:00.319Z,18.53
2019-02-19T01:09:32.322Z,19.17
2019-02-19T01:12:05.952Z,18.23
2019-02-19T01:14:36.398Z,19.07
2019-02-19T01:17:08.052Z,19.87
2019-02-19T01:19:37.667Z,19.57
2019-02-19T01:22:10.198Z,18.73
2019-02-19T01:24:44.717Z,18.50
2019-02-19T01:27:25.891Z,18.13
2019-02-19T01:30:22.032Z,18.37
2019-02-19T01:32:59.465Z,18.53
2019-02-19T01:35:32.015Z,19.27
2019-02-19T01:38:15.474Z,19.10
2019-02-19T01:40:53.323Z,19.83
2019-02-19T01:43:18.263Z,20.47
2019-02-19T01:45:47.198Z,20.43
2019-02-19T01:48:16.595Z,19.97
2019-02-19T01:50:45.543Z,19.60
2019-02-19T01:53:15.629Z,20.43
2019-02-19T01:55:45.879Z,22.20
2019-02-19T01:58:15.919Z,21.07
2019-02-19T02:00:44.873Z,20.23
2019-02-19T02:03:15.580Z,21.80
2019-02-19T02:05:45.714Z,20.90
2019-02-19T02:08:17.929Z,21.20
2019-02-19T02:10:49.655Z,21.03
2019-02-19T02:13:20.607Z,21.20
2019-02-19T02:15:49.608Z,22.00
2019-02-19T02:18:18.623Z,21.37
2019-02-19T02:20:47.579Z,22.17
2019-02-19T02:23:18.816Z,21.80
2019-02-19T02:25:47.891Z,22.33
2019-02-19T02:28:17.907Z,21.23
2019-02-19T02:30:49.807Z,22.17
2019-02-19T02:33:23.188Z,22.13
2019-02-19T02:35:52.204Z,23.00
2019-02-19T02:38:23.319Z,23.77
2019-02-19T02:40:52.413Z,22.83
2019-02-19T02:43:26.769Z,24.00
2019-02-19T02:45:56.231Z,24.17
2019-02-19T02:48:25.155Z,24.50
2019-02-19T02:50:54.833Z,24.93
2019-02-19T02:53:23.907Z,25.03
2019-02-19T02:55:52.852Z,24.47
2019-02-19T02:58:22.040Z,25.87
2019-02-19T03:00:51.128Z,26.20
2019-02-19T03:03:20.081Z,26.57
2019-02-19T03:06:01.527Z,26.33
2019-02-19T03:08:31.792Z,25.70
2019-02-19T03:11:00.738Z,26.27
2019-02-19T03:13:30.052Z,24.80
2019-02-19T03:16:02.418Z,25.60
2019-02-19T03:18:29.666Z,24.37
2019-02-19T03:20:59.181Z,25.83
2019-02-19T03:23:30.141Z,26.40
2019-02-19T03:25:59.639Z,26.23
2019-02-19T03:28:36.424Z,25.77
2019-02-19T03:31:02.732Z,27.00
2019-02-19T03:33:31.913Z,26.67
2019-02-19T03:36:06.713Z,27.20
2019-02-19T03:38:43.412Z,26.83
2019-02-19T03:41:19.987Z,27.17
2019-02-19T03:43:53.523Z,28.67
2019-02-19T03:46:22.759Z,29.03
2019-02-19T03:48:51.717Z,28.77
2019-02-19T03:51:20.636Z,29.87
2019-02-19T03:53:50.124Z,30.73
2019-02-19T03:56:24.000Z,32.13
2019-02-19T03:59:06.824Z,30.53
2019-02-19T04:01:37.729Z,30.60
2019-02-19T04:04:13.268Z,32.30
2019-02-19T04:06:58.545Z,31.70
2019-02-19T04:12:27.557Z,34.07
2019-02-19T04:15:15.322Z,32.30
2019-02-19T04:17:43.872Z,33.13
2019-02-19T04:20:15.092Z,35.07
2019-02-19T04:22:44.034Z,33.17
2019-02-19T04:25:13.183Z,33.70
2019-02-19T04:27:42.249Z,31.77
2019-02-19T04:30:11.297Z,32.93
2019-02-19T04:32:40.495Z,32.63
2019-02-19T04:35:09.491Z,33.53
2019-02-19T04:37:50.141Z,34.40
2019-02-19T04:40:20.666Z,35.13
2019-02-19T04:42:49.645Z,37.07
2019-02-19T04:45:21.341Z,37.90
2019-02-19T04:47:50.739Z,39.93
2019-02-19T04:50:19.842Z,42.00
2019-02-19T04:52:51.419Z,41.53
2019-02-19T04:55:21.991Z,42.53
2019-02-19T04:57:50.943Z,44.90
2019-02-19T05:00:21.373Z,45.33
2019-02-19T05:02:51.628Z,46.73
2019-02-19T05:05:20.734Z,47.17
2019-02-19T05:07:52.043Z,49.97
2019-02-19T05:10:21.201Z,49.97
2019-02-19T05:12:50.151Z,50.70
2019-02-19T05:15:20.661Z,50.93
2019-02-19T05:17:50.235Z,53.93
2019-02-19T05:20:20.743Z,52.53
2019-02-19T05:22:49.739Z,54.50
2019-02-19T05:25:18.729Z,55.13
2019-02-19T05:27:49.854Z,55.73
2019-02-19T05:30:18.581Z,57.87
2019-02-19T05:32:48.059Z,55.17
2019-02-19T05:35:17.772Z,54.67
2019-02-19T05:37:49.380Z,52.97
2019-02-19T05:40:19.847Z,52.60
2019-02-19T05:42:48.893Z,52.63
2019-02-19T05:45:21.340Z,51.17
2019-02-19T05:47:54.855Z,51.20
2019-02-19T05:50:23.535Z,51.37
2019-02-19T05:52:55.705Z,50.33
2019-02-19T05:55:29.212Z,48.40
2019-02-19T05:58:19.095Z,46.03
2019-02-19T06:00:43.675Z,46.50
2019-02-19T06:03:19.254Z,43.33
2019-02-19T06:05:51.130Z,42.80
2019-02-19T06:08:26.867Z,43.07
2019-02-19T06:11:01.749Z,43.53
2019-02-19T06:13:30.500Z,42.77
2019-02-19T06:16:02.050Z,42.40
2019-02-19T06:18:31.087Z,41.93
2019-02-19T06:21:06.004Z,42.67
2019-02-19T06:23:37.716Z,41.33
2019-02-19T06:26:08.236Z,39.87
2019-02-19T06:28:39.913Z,40.13
2019-02-19T06:31:12.086Z,37.67
2019-02-19T06:33:59.671Z,37.97
2019-02-19T06:36:31.552Z,36.60
2019-02-19T06:42:13.200Z,37.73
2019-02-19T06:44:45.723Z,38.73
2019-02-19T06:47:28.715Z,37.90
2019-02-19T06:50:07.477Z,37.37
2019-02-19T06:52:41.450Z,38.10
2019-02-19T06:55:15.211Z,37.20
2019-02-19T06:57:53.199Z,36.53
2019-02-19T07:00:31.941Z,36.50
2019-02-19T07:03:21.219Z,35.97
2019-02-19T07:05:56.228Z,35.57
2019-02-19T07:08:36.336Z,33.33
2019-02-19T07:11:05.487Z,34.00
2019-02-19T07:13:34.470Z,33.87
2019-02-19T07:16:03.996Z,31.27
2019-02-19T07:18:33.245Z,31.70
2019-02-19T07:21:03.675Z,30.90
2019-02-19T07:23:32.684Z,30.60
2019-02-19T07:26:03.439Z,29.57
2019-02-19T07:28:33.856Z,28.53
2019-02-19T07:31:02.808Z,27.07
2019-02-19T07:33:31.883Z,24.27
2019-02-19T07:36:01.601Z,25.10
2019-02-19T07:38:36.578Z,24.73
2019-02-19T07:41:07.120Z,24.13
2019-02-19T07:43:55.176Z,23.07
2019-02-19T07:46:25.820Z,22.50
2019-02-19T07:48:55.080Z,22.17
2019-02-19T07:51:25.620Z,22.10
2019-02-19T07:53:56.932Z,21.80
2019-02-19T07:56:33.359Z,23.43
2019-02-19T07:59:03.950Z,23.77
2019-02-19T08:01:34.913Z,22.30
2019-02-19T08:04:07.129Z,23.43
2019-02-19T08:06:37.683Z,23.87
2019-02-19T08:09:12.269Z,23.27
2019-02-19T08:11:45.576Z,23.47
2019-02-19T08:14:14.543Z,23.33
2019-02-19T08:16:49.509Z,22.80
2019-02-19T08:19:21.202Z,23.40
2019-02-19T08:22:01.475Z,23.10
2019-02-19T08:24:30.576Z,22.23
2019-02-19T08:26:59.519Z,22.87
2019-02-19T08:29:29.503Z,21.27
2019-02-19T08:31:58.854Z,22.10
2019-02-19T08:34:29.766Z,21.57
2019-02-19T08:37:11.884Z,21.67
2019-02-19T08:39:35.311Z,20.73
2019-02-19T08:42:13.060Z,21.57
2019-02-19T08:47:31.371Z,21.43
2019-02-19T08:50:02.797Z,21.60
2019-02-19T08:52:31.751Z,22.03
2019-02-19T08:55:00.715Z,21.77
2019-02-19T08:57:32.137Z,22.33
2019-02-19T09:00:03.158Z,21.63
2019-02-19T09:02:34.072Z,20.70
2019-02-19T09:05:04.863Z,20.70
2019-02-19T09:07:39.485Z,19.93
2019-02-19T09:10:15.720Z,19.47
2019-02-19T09:12:51.112Z,20.53
2019-02-19T09:15:22.184Z,18.73
2019-02-19T09:17:53.153Z,18.93
2019-02-19T09:20:22.175Z,18.57
2019-02-19T09:22:54.145Z,18.23
2019-02-19T09:25:23.199Z,18.17
2019-02-19T09:27:56.676Z,18.80
2019-02-19T09:30:29.844Z,16.37
2019-02-19T09:32:58.861Z,18.27
2019-02-19T09:35:29.491Z,17.67
2019-02-19T09:38:00.945Z,17.17
2019-02-19T09:40:29.967Z,15.93
2019-02-19T09:43:04.656Z,15.37
2019-02-19T09:45:36.895Z,15.67
2019-02-19T09:48:08.337Z,15.67
2019-02-19T09:50:41.392Z,14.13
2019-02-19T09:53:10.700Z,15.00
2019-02-19T09:55:39.682Z,14.77
2019-02-19T09:58:08.754Z,14.40
2019-02-19T10:00:41.668Z,15.17
2019-02-19T10:03:16.239Z,15.10
2019-02-19T10:05:48.176Z,14.10
2019-02-19T10:08:25.643Z,14.33
2019-02-19T10:10:54.399Z,14.77
2019-02-19T10:13:28.874Z,14.30
2019-02-19T10:16:03.485Z,14.20
2019-02-19T10:18:37.167Z,14.30
2019-02-19T10:21:06.340Z,13.27
2019-02-19T10:23:35.280Z,13.17
2019-02-19T10:26:06.525Z,14.20
2019-02-19T10:28:35.524Z,13.40
2019-02-19T10:31:05.976Z,13.60
2019-02-19T10:33:35.193Z,13.23
2019-02-19T10:36:04.571Z,13.60
2019-02-19T10:38:36.472Z,14.80
2019-02-19T10:41:07.562Z,14.40
2019-02-19T10:43:38.003Z,13.70
2019-02-19T10:46:07.121Z,14.00
2019-02-19T10:48:37.546Z,13.57
2019-02-19T10:51:10.528Z,13.27
2019-02-19T10:56:20.536Z,12.70
2019-02-19T10:58:49.500Z,11.93
2019-02-19T11:04:09.616Z,11.57
2019-02-19T11:06:40.918Z,12.77
2019-02-19T11:09:10.026Z,11.43
2019-02-19T11:11:39.064Z,11.87
2019-02-19T11:14:18.684Z,12.77
2019-02-19T11:16:47.719Z,13.03
2019-02-19T11:19:16.679Z,11.93
2019-02-19T11:22:15.119Z,11.33
2019-02-19T11:24:46.515Z,11.47
2019-02-19T11:27:32.399Z,11.83
2019-02-19T11:30:02.784Z,12.13
2019-02-19T11:32:36.343Z,11.60
2019-02-19T11:35:13.592Z,12.47
2019-02-19T11:37:41.944Z,12.10
2019-02-19T11:40:14.302Z,12.13
2019-02-19T11:42:43.358Z,11.97
2019-02-19T11:45:15.113Z,11.60
2019-02-19T11:47:44.321Z,12.53
2019-02-19T11:50:14.489Z,11.93
2019-02-19T11:52:43.706Z,11.57
2019-02-19T11:55:17.732Z,11.77
2019-02-19T11:57:51.127Z,11.47
2019-02-19T12:00:34.038Z,11.73
2019-02-19T12:03:05.421Z,11.93
2019-02-19T12:05:34.623Z,11.80
2019-02-19T12:08:05.006Z,12.40
2019-02-19T12:10:34.229Z,11.03
2019-02-19T12:13:04.993Z,11.83
2019-02-19T12:15:35.675Z,11.57
2019-02-19T12:18:08.369Z,12.10
2019-02-19T12:20:39.072Z,12.73
2019-02-19T12:23:08.020Z,12.27
2019-02-19T12:25:37.225Z,12.67
2019-02-19T12:30:55.583Z,10.73
2019-02-19T12:33:24.645Z,11.30
2019-02-19T12:35:55.980Z,10.80
2019-02-19T12:38:33.708Z,12.13
2019-02-19T12:41:03.863Z,11.10
2019-02-19T12:43:33.079Z,11.03
2019-02-19T12:46:02.036Z,12.07
2019-02-19T12:48:31.227Z,12.23
2019-02-19T12:51:02.324Z,12.10
2019-02-19T12:53:31.368Z,11.90
2019-02-19T12:56:00.348Z,13.37
2019-02-19T12:58:29.492Z,13.37
2019-02-19T13:00:58.800Z,13.90
2019-02-19T13:03:27.871Z,14.30
2019-02-19T13:05:57.037Z,15.43
2019-02-19T13:08:26.041Z,15.20
2019-02-19T13:10:56.174Z,16.53
2019-02-19T13:13:25.695Z,15.10
2019-02-19T13:15:54.688Z,16.17
2019-02-19T13:18:23.640Z,16.73
2019-02-19T13:20:54.349Z,17.00
2019-02-19T13:23:23.288Z,18.03
2019-02-19T13:25:52.266Z,19.90
2019-02-19T13:28:21.300Z,17.53
2019-02-19T13:30:50.244Z,17.47
2019-02-19T13:33:19.198Z,17.73
2019-02-19T13:35:55.538Z,19.07
2019-02-19T13:38:24.602Z,17.43
2019-02-19T13:40:54.628Z,17.30
2019-02-19T13:43:26.407Z,17.30
2019-02-19T13:46:13.231Z,17.57
2019-02-19T13:48:51.901Z,17.33
2019-02-19T13:51:31.450Z,15.90
2019-02-19T13:54:15.723Z,16.60
2019-02-19T13:56:57.166Z,15.97
2019-02-19T13:59:37.165Z,15.23
2019-02-19T14:02:21.992Z,15.07
2019-02-19T14:04:51.174Z,16.03
2019-02-19T14:07:20.138Z,15.70
2019-02-19T14:09:49.086Z,16.73
2019-02-19T14:12:20.976Z,15.20
2019-02-19T14:15:07.588Z,14.77
2019-02-19T14:17:54.446Z,15.23
2019-02-19T14:24:31.718Z,15.77
2019-02-19T14:26:42.126Z,15.67
2019-02-19T14:29:35.803Z,16.67
2019-02-19T14:32:11.864Z,16.97
2019-02-19T14:34:52.476Z,16.33
2019-02-19T14:37:23.155Z,15.90
2019-02-19T14:39:53.773Z,16.83
2019-02-19T14:42:41.576Z,13.63
2019-02-19T14:45:30.872Z,12.00
2019-02-19T14:48:16.154Z,11.17
2019-02-19T14:50:47.306Z,12.13
2019-02-19T14:53:34.312Z,11.83
2019-02-19T14:56:14.675Z,13.37
2019-02-19T14:58:45.351Z,14.33
2019-02-19T15:01:34.012Z,13.30
2019-02-19T15:04:17.247Z,13.87
2019-02-19T15:06:53.033Z,12.33
2019-02-19T15:09:23.638Z,9.70
2019-02-19T15:11:57.288Z,10.83
2019-02-19T15:14:31.791Z,10.97
2019-02-19T15:17:05.954Z,12.13
2019-02-19T15:19:39.059Z,11.37
2019-02-19T15:22:23.107Z,11.00
2019-02-19T15:25:08.375Z,8.90
2019-02-19T15:27:52.422Z,8.47
2019-02-19T15:30:30.346Z,7.50
2019-02-19T15:32:58.677Z,7.40
2019-02-19T15:36:06.893Z,7.57
2019-02-19T15:38:40.592Z,6.83
2019-02-19T15:42:35.988Z,7.93
2019-02-19T15:44:16.279Z,7.80
2019-02-19T15:47:07.787Z,7.90
2019-02-19T15:49:59.252Z,8.90
2019-02-19T15:52:51.777Z,10.07
2019-02-19T15:55:32.641Z,10.00
2019-02-19T15:58:27.054Z,11.10
2019-02-19T16:01:14.505Z,12.77
2019-02-19T16:03:47.862Z,11.97
2019-02-19T16:06:23.102Z,13.03
2019-02-19T16:09:10.302Z,12.87
2019-02-19T16:11:49.658Z,13.20
2019-02-19T16:14:34.060Z,13.33
2019-02-19T16:17:06.907Z,13.33
2019-02-19T16:20:01.696Z,12.73
2019-02-19T16:22:40.617Z,12.87
2019-02-19T16:25:22.838Z,12.40
2019-02-19T16:27:54.771Z,11.80
2019-02-19T16:30:27.194Z,13.13
2019-02-19T16:33:33.517Z,13.30
2019-02-19T16:36:24.477Z,12.80
2019-02-19T16:39:35.072Z,13.30
2019-02-19T16:42:05.006Z,12.50
2019-02-19T16:45:17.585Z,12.30
2019-02-19T16:51:46.697Z,10.57
2019-02-19T17:00:15.268Z,11.00
2019-02-19T17:02:48.567Z,10.80
2019-02-19T17:05:37.949Z,10.47
2019-02-19T17:10:59.364Z,10.50
2019-02-19T17:13:38.749Z,10.50
2019-02-19T17:16:27.255Z,11.77
2019-02-19T17:19:10.887Z,10.10
2019-02-19T17:21:41.914Z,10.13
2019-02-19T17:24:19.082Z,9.53
2019-02-19T17:26:54.540Z,9.83
2019-02-19T17:29:33.670Z,10.40
2019-02-19T17:32:06.995Z,10.03
2019-02-19T17:34:47.617Z,10.93
2019-02-19T17:37:24.138Z,9.90
2019-02-19T17:39:55.362Z,9.47
2019-02-19T17:42:31.135Z,9.00
2019-02-19T17:45:04.351Z,8.83
2019-02-19T17:47:44.560Z,8.63
2019-02-19T17:50:38.475Z,8.03
2019-02-19T17:56:21.517Z,8.57
2019-02-19T17:59:02.598Z,8.27
2019-02-19T18:01:35.814Z,9.40
2019-02-19T18:04:24.727Z,9.50
2019-02-19T18:06:55.438Z,9.40
2019-02-19T18:09:46.425Z,8.60
2019-02-19T18:12:58.314Z,10.77
2019-02-19T18:15:14.243Z,8.80
2019-02-19T18:18:01.033Z,8.07
2019-02-19T18:20:47.127Z,10.07
2019-02-19T18:23:12.530Z,8.80
2019-02-19T18:25:46.998Z,8.93
2019-02-19T18:28:23.733Z,9.43
2019-02-19T18:33:47.323Z,9.70
2019-02-19T18:36:19.983Z,9.87
2019-02-19T18:44:33.351Z,9.77
2019-02-19T18:54:30.976Z,9.03
2019-02-19T18:55:37.600Z,9.57
2019-02-19T18:58:11.938Z,9.30
2019-02-19T19:00:45.989Z,8.97
2019-02-19T19:03:19.387Z,8.97
2019-02-19T19:05:53.081Z,8.30
2019-02-19T19:08:31.067Z,7.27
2019-02-19T19:10:59.657Z,8.90
2019-02-19T19:19:12.735Z,8.60
2019-02-19T19:21:45.554Z,8.87
2019-02-19T19:30:04.550Z,8.00
2019-02-19T19:35:25.481Z,8.17
2019-02-19T19:40:49.401Z,8.43
2019-02-19T19:43:24.564Z,7.83
2019-02-19T19:46:04.810Z,8.63
2019-02-19T19:48:46.122Z,8.63
2019-02-19T19:54:44.335Z,9.57
2019-02-19T20:00:27.065Z,9.43
2019-02-19T20:02:57.367Z,9.70
2019-02-19T20:05:32.432Z,8.83
2019-02-19T20:08:19.054Z,8.77
2019-02-19T20:17:45.784Z,9.27
2019-02-19T20:19:51.219Z,8.60
2019-02-19T20:22:30.357Z,8.73
2019-02-19T20:28:41.768Z,8.97
2019-02-19T20:31:34.390Z,10.63
2019-02-19T20:37:16.831Z,10.33
2019-02-19T20:39:47.210Z,9.47
2019-02-19T20:42:30.998Z,9.00
2019-02-19T20:45:16.116Z,9.00
2019-02-19T20:59:40.647Z,9.93
2019-02-19T21:05:06.458Z,10.17
2019-02-19T21:07:42.179Z,9.63
2019-02-19T21:13:11.928Z,9.73
2019-02-19T21:18:18.754Z,11.37
2019-02-19T21:29:36.558Z,11.27
2019-02-19T21:32:10.030Z,11.53
2019-02-19T21:34:52.738Z,11.53
2019-02-19T21:43:56.269Z,11.87
2019-02-19T21:52:16.890Z,12.77
2019-02-19T21:57:32.646Z,12.17
2019-02-19T22:00:21.467Z,12.63
2019-02-19T22:02:31.116Z,12.20
2019-02-19T22:05:06.226Z,12.37
2019-02-19T22:07:40.668Z,12.33
2019-02-19T22:14:01.672Z,12.53
2019-02-19T22:15:31.184Z,14.03
2019-02-19T22:18:04.308Z,12.43
2019-02-19T22:20:51.451Z,14.07
2019-02-19T22:23:25.638Z,14.43
2019-02-19T22:25:55.831Z,13.63
2019-02-19T22:28:24.802Z,14.27
2019-02-19T22:30:54.056Z,14.20
2019-02-19T22:33:23.340Z,15.77
2019-02-19T22:36:02.182Z,14.90
2019-02-19T22:38:50.761Z,14.87
2019-02-19T22:41:40.940Z,14.67
2019-02-19T22:47:05.598Z,14.63
2019-02-19T22:52:26.883Z,16.27
2019-02-19T22:55:02.003Z,16.40
2019-02-19T22:57:30.992Z,15.67
2019-02-19T23:00:01.162Z,15.93
2019-02-19T23:02:31.919Z,16.47
2019-02-19T23:05:05.233Z,16.77
2019-02-19T23:07:35.983Z,16.50
2019-02-19T23:10:06.698Z,16.53
2019-02-19T23:12:43.425Z,17.67
2019-02-19T23:15:14.192Z,17.07
2019-02-19T23:17:46.262Z,17.73
2019-02-19T23:20:17.306Z,17.67
2019-02-19T23:22:46.591Z,17.87
2019-02-19T23:25:17.932Z,17.40
2019-02-19T23:27:48.512Z,16.93
2019-02-19T23:30:17.622Z,17.27
2019-02-19T23:32:48.289Z,17.60
2019-02-19T23:35:24.967Z,17.23
2019-02-19T23:37:53.912Z,17.97
2019-02-19T23:40:24.342Z,17.17
2019-02-19T23:42:59.247Z,17.50
2019-02-19T23:45:27.288Z,17.60
2019-02-19T23:48:00.349Z,18.87
2019-02-19T23:52:07.620Z,17.70
2019-02-19T23:53:05.713Z,18.23
2019-02-19T23:55:38.987Z,18.33
2019-02-19T23:58:08.063Z,18.43
